Accueil
METAR-TAF:

METAR-TAF

Aéroports :

Aéroport international d'Irkoutsk

Irkoutsk, Russie

latitude: 52-16N, longitude: 104-19E, altitude: 513 m

Observation

Le bulletin a été fait il y a 10 minutes, à 23:00 UTC
Vent 6 kt de est
Température 9°C
Humidité 93%
Pression 1013 hPa
Visibilité 10 km ou plus
pas de nuages en-dessous de 1500 mètres et pas de cumulonimbus.

METAR: UIII 162300Z 08003MPS CAVOK 09/08 Q1013 R12/CLRD60 NOSIG RMK QFE717/0957

Heure: 07:10 (23:10 UTC)

Prévision

Le bulletin a été fait il y a 3 heures et 10 minutes, à 20:00 UTC
Prévision valable du 16 à 21 UTC au 17 à 21 UTC
Vent 6 kt de est/nord-est
Visibilité 10 km ou plus
Nuages épars à une hauteur de 2000 ft, Cumulonimbus.
Evoluant progressivement
du 17 à 04 UTC au 17 à 06 UTC

TAF: UIII 162000Z 1621/1721 06003MPS 9999 SCT020CB BECMG 1704/1706 NSC

Observations et prévisions météorologiques de plus de 4000 aéroports (messages METAR et TAF).

Les stations disponibles sont représentées par des disques jaunes et rouges sur la carte.

Passer la souris dessus pour voir le nom de la station.

Cliquer dessus pour voir les observations et prévisions météorologiques.

Pour changer de carte: cliquez sur les boutons verts avec une croix noire pour zoomer, sur le bouton vert avec un tiret pour effectuer un zoom arrière, ou sur les flèches vertes pour les cartes adjacentes.


METAR-TAF: